Time;durP1;ratioP1;P1;durP2;ratioP2;P2;SDS_P1;SDS_P2;PMS_P1;PMS_P2;Temp;Humidity;BMP_temperature;BMP_pressure;BME280_temperature;BME280_humidity;BME280_pressure;Samples;Min_cycle;Max_cycle;Signal;HPM_P1;HPM_P2
2022/04/24 00:01:58;;;;;;;1.92;1.00;;;10.90;1.00;;;;;;5056484;28;20131;-82
2022/04/24 00:04:24;;;;;;;3.08;1.40;;;10.80;1.00;;;;;;5057861;28;20448;-82
2022/04/24 00:06:52;;;;;;;4.15;1.15;;;10.80;1.00;;;;;;5055523;28;20029;-82
2022/04/24 00:09:18;;;;;;;2.97;0.82;;;10.60;1.00;;;;;;5055053;28;20024;-82
2022/04/24 00:11:44;;;;;;;1.75;0.80;;;10.60;1.00;;;;;;5059751;28;20043;-82
2022/04/24 00:14:10;;;;;;;1.67;0.82;;;10.80;1.00;;;;;;5057698;28;20466;-82
2022/04/24 00:16:40;;;;;;;2.58;1.17;;;10.60;1.00;;;;;;5056308;28;20025;-82
2022/04/24 00:19:06;;;;;;;2.72;1.20;;;10.50;1.00;;;;;;5056018;28;20489;-82
2022/04/24 00:21:32;;;;;;;2.58;1.08;;;10.40;1.00;;;;;;5052991;28;20049;-82
2022/04/24 00:23:59;;;;;;;2.83;0.90;;;10.50;1.00;;;;;;5098933;28;20468;-82
2022/04/24 00:26:24;;;;;;;2.42;1.00;;;10.50;1.00;;;;;;5056522;28;20473;-82
2022/04/24 00:28:50;;;;;;;5.07;1.50;;;10.50;1.00;;;;;;5057491;28;20105;-82
2022/04/24 00:31:15;;;;;;;4.15;0.98;;;10.40;1.00;;;;;;5057548;28;20036;-82
2022/04/24 00:33:41;;;;;;;2.25;1.05;;;10.50;1.00;;;;;;5054060;28;20082;-82
2022/04/24 00:36:07;;;;;;;3.00;1.10;;;10.50;1.00;;;;;;5057256;28;20033;-82
2022/04/24 00:38:33;;;;;;;1.60;1.00;;;10.60;1.00;;;;;;5057895;28;20021;-82
2022/04/24 00:40:58;;;;;;;1.50;0.93;;;10.50;1.00;;;;;;5057063;28;20037;-81
2022/04/24 00:43:24;;;;;;;3.22;1.00;;;10.60;1.00;;;;;;5057206;28;20031;-82
2022/04/24 00:46:07;;;;;;;3.28;1.05;;;10.90;1.00;;;;;;5053830;28;20116;-82
2022/04/24 00:48:33;;;;;;;2.63;1.35;;;10.30;1.00;;;;;;5037278;28;20112;-82
2022/04/24 00:50:59;;;;;;;3.00;0.90;;;10.20;1.00;;;;;;5058591;28;20021;-82
2022/04/24 00:53:25;;;;;;;3.47;0.98;;;10.20;1.00;;;;;;5057068;28;20563;-82
2022/04/24 00:55:51;;;;;;;2.65;1.17;;;10.20;1.00;;;;;;5055484;28;20032;-82
2022/04/24 00:58:18;;;;;;;3.40;0.80;;;10.20;1.00;;;;;;5055433;28;20512;-82
2022/04/24 01:00:44;;;;;;;2.08;0.80;;;10.10;1.00;;;;;;5054059;28;20041;-82
2022/04/24 01:03:13;;;;;;;1.98;0.85;;;10.10;1.00;;;;;;5056472;28;20029;-82
2022/04/24 01:05:39;;;;;;;2.10;0.88;;;10.00;1.00;;;;;;5057983;28;20033;-82
2022/04/24 01:08:04;;;;;;;1.33;0.70;;;10.00;1.00;;;;;;5056726;28;20032;-82
2022/04/24 01:10:37;;;;;;;0.88;0.77;;;10.00;1.00;;;;;;5056612;28;20036;-82
2022/04/24 01:13:04;;;;;;;3.05;0.90;;;10.00;1.00;;;;;;5056618;28;20535;-82
2022/04/24 01:15:30;;;;;;;2.00;1.00;;;10.00;1.00;;;;;;5052402;28;20116;-82
2022/04/24 01:17:56;;;;;;;1.25;0.90;;;9.80;1.00;;;;;;5058684;28;20117;-82
2022/04/24 01:20:22;;;;;;;1.40;0.70;;;9.80;1.00;;;;;;5056172;28;20060;-82
2022/04/24 01:22:48;;;;;;;1.40;0.65;;;9.80;1.00;;;;;;5056565;28;20454;-82
2022/04/24 01:25:14;;;;;;;2.03;0.90;;;9.80;1.00;;;;;;5056381;28;20016;-82
2022/04/24 01:27:39;;;;;;;3.50;0.80;;;9.70;1.00;;;;;;5052944;28;20021;-82
2022/04/24 01:30:06;;;;;;;1.00;0.80;;;9.80;1.00;;;;;;5056765;28;20032;-82
2022/04/24 01:32:33;;;;;;;1.33;0.90;;;9.70;1.00;;;;;;5056793;28;20033;-82
2022/04/24 01:35:00;;;;;;;8.15;0.98;;;9.70;1.00;;;;;;5054264;28;20120;-82
2022/04/24 01:37:25;;;;;;;2.20;0.70;;;9.70;1.00;;;;;;5054784;28;20043;-83
2022/04/24 01:39:53;;;;;;;0.85;0.60;;;9.70;1.00;;;;;;5054344;28;20020;-82
2022/04/24 01:42:19;;;;;;;1.38;0.70;;;9.70;1.00;;;;;;5053236;28;20491;-83
2022/04/24 01:44:44;;;;;;;1.65;0.60;;;9.60;1.00;;;;;;5058210;28;20021;-82
2022/04/24 01:47:10;;;;;;;1.95;0.70;;;9.70;1.00;;;;;;5055911;28;20025;-83
2022/04/24 01:49:36;;;;;;;1.65;0.68;;;9.70;1.00;;;;;;5053893;28;20024;-83
2022/04/24 01:52:01;;;;;;;1.58;0.50;;;9.70;1.00;;;;;;5055569;28;20032;-83
2022/04/24 01:54:28;;;;;;;1.63;0.73;;;9.80;1.00;;;;;;5051844;28;20070;-82
2022/04/24 01:56:53;;;;;;;1.00;0.60;;;9.70;1.00;;;;;;5057864;28;20120;-83
2022/04/24 01:59:19;;;;;;;0.60;0.52;;;9.80;1.00;;;;;;5055919;28;20057;-82
2022/04/24 02:01:44;;;;;;;2.20;0.50;;;9.80;1.00;;;;;;5055526;28;20037;-82
2022/04/24 02:04:10;;;;;;;0.68;0.55;;;9.70;1.00;;;;;;5055396;28;20491;-83
2022/04/24 02:06:36;;;;;;;0.50;0.50;;;9.80;1.00;;;;;;5051806;28;20531;-83
2022/04/24 02:09:02;;;;;;;0.85;0.50;;;9.80;1.00;;;;;;5057243;28;20390;-83
2022/04/24 02:11:28;;;;;;;1.05;0.50;;;9.80;1.00;;;;;;5055893;28;20104;-82
2022/04/24 02:13:54;;;;;;;1.13;0.50;;;10.00;1.00;;;;;;5054002;28;20021;-82
2022/04/24 02:16:20;;;;;;;0.63;0.60;;;9.70;1.00;;;;;;5054120;28;20025;-82
2022/04/24 02:18:45;;;;;;;0.88;0.60;;;9.80;1.00;;;;;;5052757;28;20028;-83
2022/04/24 02:21:11;;;;;;;0.52;0.52;;;9.70;1.00;;;;;;5054172;28;20508;-82
2022/04/24 02:23:37;;;;;;;0.80;0.50;;;9.70;1.00;;;;;;5056719;28;20025;-82
2022/04/24 02:26:02;;;;;;;0.73;0.60;;;9.70;1.00;;;;;;5055373;28;20031;-82
2022/04/24 02:28:28;;;;;;;0.90;0.50;;;9.70;1.00;;;;;;5055241;28;20397;-82
2022/04/24 02:30:54;;;;;;;1.65;0.57;;;9.60;1.00;;;;;;5053807;28;20056;-82
2022/04/24 02:33:19;;;;;;;0.60;0.47;;;9.80;1.00;;;;;;5051656;28;20075;-82
2022/04/24 02:35:45;;;;;;;0.77;0.60;;;9.60;1.00;;;;;;5057229;28;20032;-83
2022/04/24 02:38:12;;;;;;;0.63;0.60;;;9.50;1.00;;;;;;5055128;28;20539;-82
2022/04/24 02:40:37;;;;;;;0.98;0.57;;;9.50;1.00;;;;;;5054813;28;20040;-82
2022/04/24 02:43:03;;;;;;;0.95;0.60;;;9.60;1.00;;;;;;5055099;28;20020;-82
2022/04/24 02:45:29;;;;;;;0.50;0.50;;;9.50;1.00;;;;;;5050849;28;20039;-82
2022/04/24 02:47:55;;;;;;;0.50;0.50;;;9.60;1.00;;;;;;5056730;28;20104;-82
2022/04/24 02:50:23;;;;;;;1.40;0.52;;;9.70;1.00;;;;;;5054916;28;20539;-82
2022/04/24 02:52:53;;;;;;;0.80;0.60;;;9.60;1.00;;;;;;5053508;28;20044;-82
2022/04/24 02:55:20;;;;;;;0.50;0.50;;;9.60;1.00;;;;;;5053290;28;20025;-83
2022/04/24 02:57:46;;;;;;;1.92;0.57;;;9.60;1.00;;;;;;5052333;28;20398;-83
2022/04/24 03:00:14;;;;;;;1.50;0.40;;;9.60;1.00;;;;;;5053320;28;20055;-82
2022/04/24 03:02:44;;;;;;;0.90;0.60;;;9.60;1.00;;;;;;5055694;28;20029;-82
2022/04/24 03:05:11;;;;;;;0.50;0.50;;;9.70;1.00;;;;;;5054667;28;20048;-83
2022/04/24 03:07:37;;;;;;;0.50;0.50;;;9.80;1.00;;;;;;5054615;28;20048;-82
2022/04/24 03:10:03;;;;;;;1.23;0.60;;;9.70;1.00;;;;;;5054578;28;20020;-83
2022/04/24 03:12:29;;;;;;;0.90;0.40;;;9.70;1.00;;;;;;5050379;28;20073;-83
2022/04/24 03:14:56;;;;;;;1.05;0.60;;;9.70;1.00;;;;;;5056218;28;20553;-82
2022/04/24 03:17:21;;;;;;;0.50;0.50;;;9.80;1.00;;;;;;5054711;28;20037;-82
2022/04/24 03:19:47;;;;;;;1.30;0.60;;;9.80;1.00;;;;;;5054415;28;20104;-83
2022/04/24 03:22:13;;;;;;;0.43;0.43;;;9.80;1.00;;;;;;5054500;28;20036;-83
2022/04/24 03:24:39;;;;;;;0.47;0.47;;;9.80;1.00;;;;;;5051149;28;20025;-83
2022/04/24 03:27:05;;;;;;;0.60;0.60;;;9.80;1.00;;;;;;5055029;28;20032;-83
2022/04/24 03:29:30;;;;;;;0.93;0.63;;;9.70;1.00;;;;;;5054905;28;20433;-83
2022/04/24 03:31:56;;;;;;;0.40;0.40;;;9.80;1.00;;;;;;5053028;28;20029;-83
2022/04/24 03:34:21;;;;;;;0.50;0.50;;;9.80;1.00;;;;;;5052783;28;20055;-83
2022/04/24 03:36:47;;;;;;;0.47;0.47;;;9.90;1.00;;;;;;5052269;28;20025;-83
2022/04/24 03:39:13;;;;;;;0.63;0.63;;;9.80;1.00;;;;;;5053098;28;20085;-83
2022/04/24 03:41:38;;;;;;;0.95;0.50;;;9.70;1.00;;;;;;5055735;28;20071;-83
2022/04/24 03:44:04;;;;;;;1.05;0.50;;;9.70;1.00;;;;;;5053978;28;20715;-83
2022/04/24 03:46:30;;;;;;;0.68;0.52;;;9.70;1.00;;;;;;5054352;28;20140;-83
2022/04/24 03:48:56;;;;;;;0.50;0.50;;;9.80;1.00;;;;;;5053310;28;20111;-82
2022/04/24 03:51:21;;;;;;;0.50;0.50;;;9.80;1.00;;;;;;5051051;28;20036;-83
2022/04/24 03:53:47;;;;;;;0.32;0.32;;;9.80;1.00;;;;;;5056278;28;20063;-83
2022/04/24 03:56:13;;;;;;;0.85;0.50;;;9.80;1.00;;;;;;5053007;28;20466;-83
2022/04/24 03:58:39;;;;;;;1.55;0.60;;;9.70;1.00;;;;;;5053916;28;20025;-82
2022/04/24 04:01:05;;;;;;;1.67;0.63;;;9.80;1.00;;;;;;5054200;28;20505;-83
2022/04/24 04:03:30;;;;;;;2.45;0.60;;;9.80;1.00;;;;;;5034152;28;20044;-83
2022/04/24 04:05:56;;;;;;;0.55;0.50;;;9.80;1.00;;;;;;5056171;28;20029;-83
2022/04/24 04:08:21;;;;;;;1.23;0.98;;;9.70;1.00;;;;;;5054031;28;20489;-83
2022/04/24 04:10:47;;;;;;;0.45;0.45;;;9.80;1.00;;;;;;5052680;28;20029;-83
2022/04/24 04:13:13;;;;;;;0.65;0.50;;;9.80;1.00;;;;;;5054235;28;20408;-83
2022/04/24 04:15:39;;;;;;;1.15;0.77;;;9.70;1.00;;;;;;5054442;28;20054;-83
2022/04/24 04:18:04;;;;;;;0.50;0.50;;;9.80;1.00;;;;;;5058118;28;20025;-83
2022/04/24 04:20:30;;;;;;;1.00;0.50;;;9.70;1.00;;;;;;5057994;28;20037;-82
2022/04/24 04:22:56;;;;;;;1.00;0.70;;;9.80;1.00;;;;;;5057764;28;20029;-83
2022/04/24 04:25:24;;;;;;;0.80;0.68;;;9.80;1.00;;;;;;5057552;28;20119;-82
2022/04/24 04:27:50;;;;;;;0.50;0.50;;;9.70;1.00;;;;;;5055096;28;20428;-83
2022/04/24 04:30:16;;;;;;;1.40;0.50;;;9.80;1.00;;;;;;5055186;28;20476;-82
2022/04/24 04:32:41;;;;;;;0.60;0.40;;;9.70;1.00;;;;;;5059253;28;20025;-83
2022/04/24 04:35:09;;;;;;;0.55;0.55;;;9.60;1.00;;;;;;5057182;28;20045;-82
2022/04/24 04:37:36;;;;;;;0.82;0.40;;;9.60;1.00;;;;;;5057433;28;20021;-82
2022/04/24 04:40:03;;;;;;;0.60;0.50;;;9.60;1.00;;;;;;5056923;28;20024;-82
2022/04/24 04:42:28;;;;;;;1.38;0.60;;;9.60;1.00;;;;;;5052797;28;20033;-83
2022/04/24 04:44:56;;;;;;;1.25;0.70;;;9.70;1.00;;;;;;5059224;28;20533;-83
2022/04/24 04:47:22;;;;;;;0.40;0.35;;;9.70;1.00;;;;;;5057248;28;20144;-83
2022/04/24 04:49:47;;;;;;;1.48;0.50;;;9.70;1.00;;;;;;5055665;28;20108;-83
2022/04/24 04:52:13;;;;;;;1.48;0.50;;;9.70;1.00;;;;;;5055642;28;20477;-83
2022/04/24 04:54:40;;;;;;;0.40;0.40;;;9.70;1.00;;;;;;5053455;28;20028;-83
2022/04/24 04:57:06;;;;;;;0.73;0.40;;;9.70;1.00;;;;;;5056762;28;20035;-83
2022/04/24 04:59:31;;;;;;;0.30;0.30;;;9.80;1.00;;;;;;5057692;28;20481;-83
2022/04/24 05:01:57;;;;;;;0.52;0.50;;;9.80;1.00;;;;;;5056730;28;20047;-83
2022/04/24 05:04:23;;;;;;;0.30;0.30;;;9.90;1.00;;;;;;5056911;28;20066;-82
2022/04/24 05:06:48;;;;;;;0.82;0.40;;;9.80;1.00;;;;;;5054590;28;20493;-83
2022/04/24 05:09:14;;;;;;;0.50;0.30;;;9.80;1.00;;;;;;5055076;28;20029;-83
2022/04/24 05:11:39;;;;;;;0.40;0.40;;;9.70;1.00;;;;;;5057856;28;20087;-83
2022/04/24 05:14:06;;;;;;;0.63;0.30;;;9.80;1.00;;;;;;5056692;28;20025;-81
2022/04/24 05:16:32;;;;;;;0.40;0.30;;;9.80;1.00;;;;;;5055576;28;20116;-82
2022/04/24 05:18:58;;;;;;;0.30;0.30;;;9.80;1.00;;;;;;5055130;28;20100;-85
2022/04/24 05:21:24;;;;;;;0.43;0.43;;;9.80;1.00;;;;;;5052740;28;20124;-84
2022/04/24 05:23:52;;;;;;;0.47;0.47;;;9.80;1.00;;;;;;5057310;28;20405;-85
2022/04/24 05:26:18;;;;;;;0.45;0.43;;;9.80;1.00;;;;;;5055562;28;20028;-83
2022/04/24 05:28:44;;;;;;;0.55;0.40;;;9.90;1.00;;;;;;5054663;28;20021;-86
2022/04/24 05:31:09;;;;;;;0.65;0.40;;;9.90;1.00;;;;;;5053320;28;20108;-86
2022/04/24 05:33:36;;;;;;;0.40;0.40;;;9.90;1.00;;;;;;5051505;28;20492;-86
2022/04/24 05:36:01;;;;;;;0.85;0.50;;;10.00;1.00;;;;;;5057399;28;20485;-81
2022/04/24 05:38:27;;;;;;;0.60;0.40;;;10.00;1.00;;;;;;5053612;28;20031;-82
2022/04/24 05:40:53;;;;;;;0.68;0.35;;;10.00;1.00;;;;;;5055331;28;20599;-84
2022/04/24 05:43:18;;;;;;;0.40;0.40;;;10.00;1.00;;;;;;5055622;28;20120;-86
2022/04/24 05:45:44;;;;;;;0.63;0.40;;;10.10;1.00;;;;;;5052787;28;20037;-86
2022/04/24 05:48:10;;;;;;;2.80;0.38;;;10.10;1.00;;;;;;5055369;28;20549;-85
2022/04/24 05:50:35;;;;;;;0.32;0.32;;;10.50;1.00;;;;;;5056396;28;20100;-86
2022/04/24 05:53:02;;;;;;;0.40;0.40;;;10.20;1.00;;;;;;5055431;28;20052;-85
2022/04/24 05:55:27;;;;;;;0.40;0.40;;;10.10;1.00;;;;;;5054965;28;20021;-85
2022/04/24 05:57:54;;;;;;;0.57;0.40;;;10.00;1.00;;;;;;5054306;28;20039;-86
2022/04/24 06:00:22;;;;;;;0.40;0.30;;;10.20;1.00;;;;;;5052665;28;20120;-87
2022/04/24 06:02:47;;;;;;;0.50;0.40;;;10.10;1.00;;;;;;5057679;28;20488;-86
2022/04/24 06:05:13;;;;;;;0.43;0.40;;;10.20;1.00;;;;;;5055683;28;20112;-86
2022/04/24 06:07:40;;;;;;;0.50;0.50;;;10.30;1.00;;;;;;5054272;28;20031;-86
2022/04/24 06:10:07;;;;;;;0.82;0.60;;;10.10;1.00;;;;;;5053746;28;20082;-86
2022/04/24 06:12:53;;;;;;;0.90;0.40;;;10.20;1.00;;;;;;5051246;28;20057;-86
2022/04/24 06:15:29;;;;;;;3.20;0.75;;;10.20;1.00;;;;;;5065600;28;20013;-86
2022/04/24 06:17:57;;;;;;;0.65;0.60;;;10.30;1.00;;;;;;5057525;28;20065;-86
2022/04/24 06:20:24;;;;;;;0.40;0.40;;;10.20;1.00;;;;;;5055178;28;20028;-86
2022/04/24 06:22:51;;;;;;;0.63;0.50;;;10.30;1.00;;;;;;5055431;28;20040;-86
2022/04/24 06:25:25;;;;;;;0.55;0.40;;;10.30;1.00;;;;;;5054956;28;20028;-85
2022/04/24 06:27:51;;;;;;;0.32;0.32;;;10.30;1.00;;;;;;5049456;28;20400;-82
2022/04/24 06:30:19;;;;;;;0.90;0.43;;;10.30;1.00;;;;;;5034921;28;20034;-79
2022/04/24 06:32:45;;;;;;;0.60;0.60;;;10.20;1.00;;;;;;5035662;28;20029;-81
2022/04/24 06:35:14;;;;;;;0.40;0.40;;;10.20;1.00;;;;;;5035801;28;20069;-81
2022/04/24 06:37:41;;;;;;;0.82;0.40;;;10.20;1.00;;;;;;5040209;28;20036;-89
2022/04/24 06:40:09;;;;;;;0.65;0.30;;;10.20;1.00;;;;;;5045690;28;20022;-82
2022/04/24 06:42:46;;;;;;;0.38;0.38;;;10.20;1.00;;;;;;5050134;28;20025;-83
2022/04/24 06:45:11;;;;;;;0.50;0.50;;;10.20;1.00;;;;;;5048692;28;20020;-83
2022/04/24 06:47:37;;;;;;;0.60;0.60;;;10.40;1.00;;;;;;5037439;28;20103;-85
2022/04/24 06:50:03;;;;;;;0.40;0.40;;;10.40;1.00;;;;;;5037160;28;20049;-85
2022/04/24 06:52:28;;;;;;;0.50;0.50;;;10.60;1.00;;;;;;5036705;28;20030;-85
2022/04/24 06:54:54;;;;;;;0.50;0.50;;;10.50;1.00;;;;;;5035712;28;20074;-85
2022/04/24 06:57:20;;;;;;;0.60;0.57;;;10.50;1.00;;;;;;5034519;28;20025;-84
2022/04/24 06:59:45;;;;;;;1.75;0.50;;;10.60;1.00;;;;;;5036793;28;20017;-85
2022/04/24 07:02:11;;;;;;;1.52;0.50;;;10.50;1.00;;;;;;5037194;28;20037;-84
2022/04/24 07:04:37;;;;;;;0.40;0.40;;;10.70;1.00;;;;;;5037393;28;20017;-84
2022/04/24 07:07:03;;;;;;;0.40;0.40;;;10.80;1.00;;;;;;5036538;28;20029;-85
2022/04/24 07:09:29;;;;;;;0.50;0.50;;;10.80;1.00;;;;;;5033205;28;20018;-85
2022/04/24 07:11:54;;;;;;;0.43;0.40;;;11.00;1.00;;;;;;5068822;28;20037;-85
2022/04/24 07:14:20;;;;;;;0.57;0.40;;;10.90;1.00;;;;;;5051970;28;20025;-84
2022/04/24 07:16:46;;;;;;;0.45;0.45;;;10.90;1.00;;;;;;5054765;28;20036;-85
2022/04/24 07:19:12;;;;;;;0.30;0.30;;;10.90;1.00;;;;;;5054566;28;20055;-84
2022/04/24 07:21:37;;;;;;;1.10;0.40;;;11.10;1.00;;;;;;5050185;28;20079;-84
2022/04/24 07:24:03;;;;;;;0.77;0.50;;;11.30;1.00;;;;;;5055891;28;20071;-84
2022/04/24 07:26:29;;;;;;;0.73;0.40;;;11.40;1.00;;;;;;5054940;28;20037;-85
2022/04/24 07:28:55;;;;;;;0.50;0.50;;;11.20;1.00;;;;;;5053048;28;20025;-85
2022/04/24 07:31:21;;;;;;;0.43;0.43;;;11.30;1.00;;;;;;5054526;28;20095;-85
2022/04/24 07:33:46;;;;;;;0.40;0.40;;;11.50;1.00;;;;;;5051742;28;20037;-85
2022/04/24 07:36:13;;;;;;;1.85;0.50;;;11.60;1.00;;;;;;5053336;28;20033;-84
2022/04/24 07:38:39;;;;;;;0.40;0.40;;;11.70;1.00;;;;;;5055697;28;20025;-85
2022/04/24 07:41:05;;;;;;;0.43;0.43;;;11.70;1.00;;;;;;5054053;28;20531;-85
2022/04/24 07:43:30;;;;;;;2.35;0.40;;;11.80;1.00;;;;;;5054364;28;20029;-85
2022/04/24 07:45:56;;;;;;;0.50;0.50;;;11.70;1.00;;;;;;5053060;28;20036;-85
2022/04/24 07:48:21;;;;;;;0.60;0.60;;;11.70;1.00;;;;;;5053429;28;20025;-85
2022/04/24 07:50:49;;;;;;;0.55;0.50;;;11.70;1.00;;;;;;5059908;28;20037;-84
2022/04/24 07:53:16;;;;;;;1.33;0.60;;;11.70;1.00;;;;;;5058253;28;20037;-85
2022/04/24 07:55:44;;;;;;;0.82;0.75;;;12.00;1.00;;;;;;5058078;28;20516;-85
2022/04/24 07:58:11;;;;;;;1.17;0.63;;;11.80;1.00;;;;;;5058217;28;20025;-85
2022/04/24 08:00:38;;;;;;;0.57;0.55;;;11.90;1.00;;;;;;5054123;28;20031;-85
2022/04/24 08:03:06;;;;;;;1.00;0.57;;;11.80;1.00;;;;;;5059144;28;20036;-85
2022/04/24 08:05:39;;;;;;;0.70;0.60;;;11.70;1.00;;;;;;5056849;28;20070;-84
2022/04/24 08:08:07;;;;;;;0.68;0.50;;;11.90;1.00;;;;;;5056276;28;20066;-85
2022/04/24 08:10:35;;;;;;;0.85;0.80;;;11.90;1.00;;;;;;5057816;28;20025;-85
2022/04/24 08:13:04;;;;;;;1.38;0.60;;;12.00;1.00;;;;;;5057304;28;20025;-85
2022/04/24 08:15:30;;;;;;;2.42;0.60;;;12.10;1.00;;;;;;5053680;28;20029;-85
2022/04/24 08:17:56;;;;;;;1.10;0.93;;;12.00;1.00;;;;;;5059773;28;20496;-86
2022/04/24 08:20:21;;;;;;;0.80;0.80;;;12.20;1.00;;;;;;5057200;28;20032;-85
2022/04/24 08:22:51;;;;;;;0.60;0.60;;;12.20;1.00;;;;;;5057646;28;20025;-85
2022/04/24 08:25:19;;;;;;;0.60;0.60;;;12.20;1.00;;;;;;5057486;28;20043;-85
2022/04/24 08:27:46;;;;;;;0.82;0.80;;;12.30;1.00;;;;;;5054742;28;20021;-85
2022/04/24 08:30:13;;;;;;;0.70;0.70;;;12.50;1.00;;;;;;5056625;28;20060;-85
2022/04/24 08:32:40;;;;;;;1.85;0.68;;;12.60;1.00;;;;;;5058715;28;20017;-85
2022/04/24 08:35:07;;;;;;;1.55;1.20;;;12.70;1.00;;;;;;5056934;28;20041;-85
2022/04/24 08:37:33;;;;;;;0.55;0.55;;;12.90;1.00;;;;;;5057245;28;20532;-85
2022/04/24 08:39:59;;;;;;;2.40;0.63;;;12.70;1.00;;;;;;5056309;28;20123;-85
2022/04/24 08:42:26;;;;;;;0.60;0.60;;;12.70;1.00;;;;;;5053614;28;20037;-85
2022/04/24 08:44:56;;;;;;;0.60;0.50;;;12.80;1.00;;;;;;5058284;28;20119;-85
2022/04/24 08:47:23;;;;;;;2.83;0.73;;;13.00;1.00;;;;;;5055670;28;20025;-85
2022/04/24 08:49:49;;;;;;;0.68;0.60;;;13.30;1.00;;;;;;5056720;28;20056;-85
2022/04/24 08:52:16;;;;;;;1.52;0.88;;;13.60;1.00;;;;;;5057026;28;20053;-85
2022/04/24 08:54:42;;;;;;;1.33;0.50;;;13.70;1.00;;;;;;5053833;28;20032;-85
2022/04/24 08:57:09;;;;;;;0.95;0.50;;;13.50;1.00;;;;;;5057118;28;20403;-85
2022/04/24 08:59:36;;;;;;;1.45;1.00;;;13.50;1.00;;;;;;5056346;28;20024;-85
2022/04/24 09:02:01;;;;;;;0.88;0.80;;;13.60;1.00;;;;;;5056834;28;20033;-85
2022/04/24 09:04:30;;;;;;;1.05;0.70;;;14.00;1.00;;;;;;5056576;28;20639;-85
2022/04/24 09:06:57;;;;;;;0.60;0.60;;;14.60;1.00;;;;;;5055572;28;20103;-85
2022/04/24 09:09:23;;;;;;;1.35;0.80;;;14.80;1.00;;;;;;5053591;28;20024;-85
2022/04/24 09:11:49;;;;;;;0.60;0.60;;;14.60;1.00;;;;;;5058692;28;20025;-85
2022/04/24 09:14:15;;;;;;;0.90;0.73;;;14.70;1.00;;;;;;5056658;28;20090;-85
2022/04/24 09:16:49;;;;;;;0.88;0.80;;;14.60;1.00;;;;;;5056734;28;20021;-85
2022/04/24 09:19:25;;;;;;;3.53;0.73;;;14.60;1.00;;;;;;5056262;28;20067;-85
2022/04/24 09:21:53;;;;;;;0.70;0.70;;;14.70;1.00;;;;;;5053064;28;20125;-85
2022/04/24 09:24:20;;;;;;;2.03;0.75;;;15.20;1.00;;;;;;5054342;28;20021;-85
2022/04/24 09:26:56;;;;;;;2.20;0.80;;;15.30;1.00;;;;;;5056625;28;20029;-85
2022/04/24 09:29:23;;;;;;;0.70;0.68;;;15.40;1.00;;;;;;5056300;28;20058;-86
2022/04/24 09:31:50;;;;;;;1.15;1.00;;;15.40;1.00;;;;;;5056009;28;20040;-84
2022/04/24 09:34:17;;;;;;;1.05;0.90;;;15.20;1.00;;;;;;5056150;28;20066;-85
2022/04/24 09:37:06;;;;;;;1.50;0.75;;;15.10;1.00;;;;;;5053382;28;20416;-85
2022/04/24 09:39:33;;;;;;;0.57;0.57;;;15.00;1.00;;;;;;5035976;28;20083;-85
2022/04/24 09:42:19;;;;;;;0.60;0.60;;;14.80;1.00;;;;;;5065042;28;20110;-85
2022/04/24 09:44:50;;;;;;;1.73;0.70;;;14.70;1.00;;;;;;5056050;28;20437;-85
2022/04/24 09:47:23;;;;;;;1.10;0.57;;;14.80;1.00;;;;;;5055772;28;20029;-85
2022/04/24 09:49:50;;;;;;;0.60;0.60;;;15.00;1.00;;;;;;5055941;28;20111;-85
2022/04/24 09:52:25;;;;;;;0.60;0.60;;;15.00;1.00;;;;;;5055872;28;20033;-85
2022/04/24 09:54:53;;;;;;;0.57;0.57;;;14.80;1.00;;;;;;5053890;28;20021;-85
2022/04/24 09:57:22;;;;;;;0.73;0.57;;;14.60;1.00;;;;;;5053150;28;20036;-85
2022/04/24 09:59:50;;;;;;;0.43;0.43;;;14.80;1.00;;;;;;5057797;28;20481;-85
2022/04/24 10:02:18;;;;;;;0.57;0.57;;;14.80;1.00;;;;;;5054005;28;20029;-85
2022/04/24 10:04:46;;;;;;;1.85;0.60;;;14.90;1.00;;;;;;5054258;28;20033;-85
2022/04/24 10:07:14;;;;;;;0.63;0.57;;;15.20;1.00;;;;;;5055618;28;20024;-85
2022/04/24 10:09:47;;;;;;;0.82;0.50;;;15.20;1.00;;;;;;5051839;28;20028;-85
2022/04/24 10:12:18;;;;;;;1.35;0.50;;;15.50;1.00;;;;;;5054477;28;20527;-85
2022/04/24 10:14:50;;;;;;;0.40;0.40;;;15.90;1.00;;;;;;5055387;28;20032;-85
2022/04/24 10:17:48;;;;;;;0.47;0.47;;;15.70;1.00;;;;;;5055117;28;20096;-85
2022/04/24 10:20:39;;;;;;;1.08;0.40;;;15.50;1.00;;;;;;5055346;28;20108;-85
2022/04/24 10:23:05;;;;;;;0.40;0.40;;;15.80;1.00;;;;;;5054007;28;20029;-85
2022/04/24 10:25:38;;;;;;;1.13;0.40;;;15.80;1.00;;;;;;5055466;28;20079;-85
2022/04/24 10:28:17;;;;;;;0.60;0.40;;;16.20;1.00;;;;;;5055240;28;20122;-85
2022/04/24 10:30:45;;;;;;;0.45;0.45;;;16.10;1.00;;;;;;5037113;28;20075;-85
2022/04/24 10:33:20;;;;;;;0.43;0.43;;;16.50;1.00;;;;;;5054800;28;20481;-86
2022/04/24 10:35:54;;;;;;;0.50;0.50;;;16.60;1.00;;;;;;5055369;28;20111;-85
2022/04/24 10:38:22;;;;;;;0.47;0.47;;;16.80;1.00;;;;;;5055101;28;20021;-85
2022/04/24 10:41:02;;;;;;;3.15;0.40;;;17.00;1.00;;;;;;5053636;28;20041;-85
2022/04/24 10:43:44;;;;;;;2.05;0.50;;;17.40;1.00;;;;;;5053514;28;20025;-85
2022/04/24 10:46:24;;;;;;;0.47;0.47;;;17.20;1.00;;;;;;5054553;28;20021;-85
2022/04/24 10:48:50;;;;;;;0.50;0.45;;;16.90;1.00;;;;;;5052666;28;20047;-85
2022/04/24 10:51:29;;;;;;;0.38;0.38;;;17.40;1.00;;;;;;5053123;28;20036;-85
2022/04/24 10:53:57;;;;;;;2.75;0.70;;;16.80;1.00;;;;;;5056324;28;20524;-85
2022/04/24 10:56:23;;;;;;;0.63;0.57;;;17.40;1.00;;;;;;5054872;28;20024;-85
2022/04/24 10:58:51;;;;;;;0.52;0.47;;;17.60;1.00;;;;;;5054421;28;20082;-85
2022/04/24 11:01:17;;;;;;;0.50;0.50;;;17.10;1.00;;;;;;5054689;28;20093;-85
2022/04/24 11:03:45;;;;;;;0.30;0.30;;;17.10;1.00;;;;;;5051710;28;20052;-85
2022/04/24 11:06:24;;;;;;;1.25;0.50;;;17.50;1.00;;;;;;5054572;28;20029;-86
2022/04/24 11:08:51;;;;;;;0.40;0.40;;;17.70;1.00;;;;;;5055367;28;20029;-85
2022/04/24 11:11:18;;;;;;;0.35;0.30;;;17.50;1.00;;;;;;5054639;28;20554;-86
2022/04/24 11:13:44;;;;;;;0.40;0.40;;;17.20;1.00;;;;;;5054172;28;20056;-85
2022/04/24 11:16:12;;;;;;;1.00;0.50;;;17.30;1.00;;;;;;5054702;28;20020;-85
2022/04/24 11:18:38;;;;;;;0.50;0.50;;;17.30;1.00;;;;;;5049404;28;20032;-85
2022/04/24 11:21:06;;;;;;;1.75;0.40;;;17.40;1.00;;;;;;5055719;28;20393;-85
2022/04/24 11:23:37;;;;;;;0.20;0.20;;;17.50;1.00;;;;;;5056607;28;20478;-85
2022/04/24 11:26:09;;;;;;;0.30;0.30;;;17.60;1.00;;;;;;5058731;28;20021;-85
2022/04/24 11:28:35;;;;;;;1.08;0.28;;;17.50;1.00;;;;;;5058321;28;20115;-85
2022/04/24 11:31:20;;;;;;;0.73;0.43;;;17.30;1.00;;;;;;5057875;28;20029;-85
2022/04/24 11:33:55;;;;;;;0.47;0.43;;;18.00;1.00;;;;;;5040339;28;20079;-85
2022/04/24 11:36:22;;;;;;;0.30;0.30;;;18.80;1.00;;;;;;5055737;28;20025;-85
2022/04/24 11:38:49;;;;;;;0.88;0.40;;;19.20;1.00;;;;;;5060519;28;20051;-85
2022/04/24 11:41:15;;;;;;;1.08;0.45;;;18.90;1.00;;;;;;5058362;28;20036;-86
2022/04/24 11:43:43;;;;;;;0.63;0.40;;;19.60;1.00;;;;;;5058004;28;20044;-85
2022/04/24 11:51:39;;;;;;;0.40;0.40;;;21.20;1.00;;;;;;5039360;28;20582;-85
2022/04/24 11:54:11;;;;;;;0.35;0.35;;;22.00;1.00;;;;;;5059494;28;20025;-85
2022/04/24 11:56:37;;;;;;;0.20;0.20;;;21.00;1.00;;;;;;5059112;28;20481;-85
2022/04/24 11:59:15;;;;;;;0.35;0.35;;;20.10;1.00;;;;;;5056396;28;20504;-86
2022/04/24 12:01:43;;;;;;;0.28;0.28;;;20.90;1.00;;;;;;5056418;28;20033;-85
2022/04/24 12:04:16;;;;;;;1.00;0.20;;;21.60;1.00;;;;;;5058081;28;20029;-86
2022/04/24 12:06:41;;;;;;;0.20;0.20;;;21.20;1.00;;;;;;5054653;28;20086;-85
2022/04/24 12:09:08;;;;;;;1.30;0.20;;;20.10;1.00;;;;;;5058246;28;20415;-86
2022/04/24 12:11:35;;;;;;;0.20;0.20;;;19.10;1.00;;;;;;5057087;28;20029;-85
2022/04/24 12:14:06;;;;;;;0.30;0.30;;;18.20;1.00;;;;;;5057774;28;20025;-85
2022/04/24 12:16:33;;;;;;;0.30;0.30;;;18.10;1.00;;;;;;5057825;28;20115;-85
2022/04/24 12:18:59;;;;;;;0.22;0.20;;;18.10;1.00;;;;;;5056646;28;20028;-86
2022/04/24 12:21:31;;;;;;;0.20;0.20;;;18.30;1.00;;;;;;5054165;28;20160;-85
2022/04/24 12:23:57;;;;;;;0.90;0.40;;;18.50;1.00;;;;;;5058554;28;20094;-86
2022/04/24 12:26:25;;;;;;;1.55;0.40;;;18.50;1.00;;;;;;5057241;28;20033;-85
2022/04/24 12:28:51;;;;;;;1.23;0.20;;;18.40;1.00;;;;;;5057632;28;20021;-85
2022/04/24 12:31:25;;;;;;;0.40;0.40;;;18.50;1.00;;;;;;5057371;28;20039;-85
2022/04/24 12:33:53;;;;;;;0.28;0.28;;;18.80;1.00;;;;;;5054838;28;20044;-85
2022/04/24 12:36:19;;;;;;;0.25;0.20;;;18.80;1.00;;;;;;5055790;28;20025;-85
2022/04/24 12:38:59;;;;;;;0.25;0.25;;;18.90;1.00;;;;;;5057348;28;20021;-85
2022/04/24 12:41:28;;;;;;;1.10;0.30;;;20.30;1.00;;;;;;5055381;28;20493;-85
2022/04/24 12:44:01;;;;;;;0.20;0.20;;;20.30;1.00;;;;;;5057093;28;20029;-85
2022/04/24 12:46:27;;;;;;;0.20;0.20;;;20.40;1.00;;;;;;5057345;28;20068;-85
2022/04/24 12:48:55;;;;;;;0.40;0.25;;;20.50;1.00;;;;;;5055388;28;20102;-85
2022/04/24 12:51:23;;;;;;;0.47;0.20;;;20.00;1.00;;;;;;5054456;28;20028;-85
2022/04/24 12:53:50;;;;;;;0.55;0.45;;;19.70;1.00;;;;;;5059094;28;20430;-86
2022/04/24 12:56:16;;;;;;;0.40;0.40;;;19.80;1.00;;;;;;5056691;28;20025;-85
2022/04/24 12:58:41;;;;;;;0.20;0.20;;;19.90;1.00;;;;;;5057038;28;20517;-86
2022/04/24 13:01:08;;;;;;;0.40;0.32;;;19.90;1.00;;;;;;5056917;28;20043;-86
2022/04/24 13:03:34;;;;;;;0.22;0.20;;;19.80;1.00;;;;;;5036920;28;20024;-85
2022/04/24 13:06:00;;;;;;;0.20;0.20;;;19.80;1.00;;;;;;5059145;28;20108;-85
2022/04/24 13:08:26;;;;;;;0.30;0.30;;;20.10;1.00;;;;;;5056806;28;20029;-85